Time;durP1;ratioP1;P1;durP2;ratioP2;P2;SDS_P1;SDS_P2;PMS_P1;PMS_P2;Temp;Humidity;BMP_temperature;BMP_pressure;BME280_temperature;BME280_humidity;BME280_pressure;Samples;Min_cycle;Max_cycle;Signal;HPM_P1;HPM_P2
2022/04/14 00:01:30;;;;;;;2.42;2.10;;;;;;;;;;4944104;29;20201;-71
2022/04/14 00:03:57;;;;;;;1.83;1.60;;;;;;;;;;4931636;29;20231;-71
2022/04/14 00:06:24;;;;;;;2.55;2.35;;;;;;;;;;4939740;29;20203;-71
2022/04/14 00:08:52;;;;;;;5.78;1.75;;;;;;;;;;4947977;29;20210;-73
2022/04/14 00:11:19;;;;;;;2.05;1.85;;;;;;;;;;4938483;29;20260;-72
2022/04/14 00:13:48;;;;;;;2.95;2.00;;;;;;;;;;4934636;29;20530;-72
2022/04/14 00:16:15;;;;;;;2.83;1.80;;;;;;;;;;4940490;29;20203;-72
2022/04/14 00:18:42;;;;;;;1.50;1.33;;;;;;;;;;4927040;29;20203;-72
2022/04/14 00:21:09;;;;;;;2.42;1.70;;;;;;;;;;4931879;29;20214;-72
2022/04/14 00:23:36;;;;;;;2.05;1.50;;;;;;;;;;4940115;29;20204;-72
2022/04/14 00:26:03;;;;;;;1.50;1.30;;;;;;;;;;4941911;29;20196;-72
2022/04/14 00:28:30;;;;;;;2.65;1.60;;;;;;;;;;4937956;29;20224;-72
2022/04/14 00:30:59;;;;;;;1.48;1.38;;;;;;;;;;4950558;28;20573;-72
2022/04/14 00:33:26;;;;;;;2.08;1.65;;;;;;;;;;4940600;29;20580;-73
2022/04/14 00:35:53;;;;;;;2.75;1.85;;;;;;;;;;4944442;29;20195;-73
2022/04/14 00:38:20;;;;;;;2.95;2.50;;;;;;;;;;4944448;29;20575;-72
2022/04/14 00:40:49;;;;;;;1.85;1.70;;;;;;;;;;4944956;28;20267;-73
2022/04/14 00:43:16;;;;;;;1.60;1.50;;;;;;;;;;4939577;29;20196;-73
2022/04/14 00:45:43;;;;;;;1.30;1.20;;;;;;;;;;4938001;29;20195;-72
2022/04/14 00:48:13;;;;;;;2.08;1.88;;;;;;;;;;4933162;29;20278;-73
2022/04/14 00:50:40;;;;;;;1.35;1.23;;;;;;;;;;4928329;29;20201;-73
2022/04/14 00:53:08;;;;;;;1.88;1.50;;;;;;;;;;4938259;29;20199;-73
2022/04/14 00:55:35;;;;;;;2.92;1.90;;;;;;;;;;4931902;29;20206;-73
2022/04/14 00:58:02;;;;;;;1.33;1.10;;;;;;;;;;4944183;29;20213;-74
2022/04/14 01:00:29;;;;;;;4.05;1.80;;;;;;;;;;4936046;29;20224;-73
2022/04/14 01:02:56;;;;;;;3.63;1.00;;;;;;;;;;4931568;29;20626;-73
2022/04/14 01:05:26;;;;;;;5.05;1.65;;;;;;;;;;4934919;29;20198;-74
2022/04/14 01:07:53;;;;;;;1.85;1.65;;;;;;;;;;4941800;29;20202;-73
2022/04/14 01:10:20;;;;;;;1.20;1.10;;;;;;;;;;4935634;29;20280;-73
2022/04/14 01:12:47;;;;;;;2.03;1.50;;;;;;;;;;4943060;29;20194;-74
2022/04/14 01:15:15;;;;;;;2.38;1.23;;;;;;;;;;4939710;29;20693;-73
2022/04/14 01:17:42;;;;;;;2.15;1.52;;;;;;;;;;4935955;29;20203;-73
2022/04/14 01:20:11;;;;;;;1.70;1.60;;;;;;;;;;4937881;29;20237;-74
2022/04/14 01:22:42;;;;;;;2.38;1.30;;;;;;;;;;4945235;29;20200;-73
2022/04/14 01:25:11;;;;;;;2.22;1.58;;;;;;;;;;4937467;29;20198;-73
2022/04/14 01:27:38;;;;;;;2.20;1.70;;;;;;;;;;4940680;29;20190;-73
2022/04/14 01:30:05;;;;;;;3.13;1.75;;;;;;;;;;4941382;29;20233;-73
2022/04/14 01:32:32;;;;;;;2.15;1.70;;;;;;;;;;4948102;29;20199;-73
2022/04/14 01:34:59;;;;;;;1.50;1.40;;;;;;;;;;4943868;29;20228;-73
2022/04/14 01:37:27;;;;;;;3.25;1.70;;;;;;;;;;4934029;29;20194;-73
2022/04/14 01:39:54;;;;;;;3.13;1.85;;;;;;;;;;4932280;28;20238;-73
2022/04/14 01:42:22;;;;;;;1.65;1.55;;;;;;;;;;4935276;29;20202;-73
2022/04/14 01:44:49;;;;;;;1.90;1.80;;;;;;;;;;4938204;29;20653;-73
2022/04/14 01:47:16;;;;;;;5.13;1.90;;;;;;;;;;4949923;29;20199;-73
2022/04/14 01:49:43;;;;;;;2.03;1.58;;;;;;;;;;4929670;29;20205;-73
2022/04/14 01:52:10;;;;;;;2.42;1.52;;;;;;;;;;4932895;29;20237;-74
2022/04/14 01:54:37;;;;;;;2.95;1.92;;;;;;;;;;4930990;29;20211;-74
2022/04/14 01:57:05;;;;;;;1.90;1.60;;;;;;;;;;4937847;29;20202;-74
2022/04/14 01:59:33;;;;;;;1.80;1.40;;;;;;;;;;4926863;29;20218;-73
2022/04/14 02:02:00;;;;;;;1.90;1.45;;;;;;;;;;4940675;29;20203;-73
2022/04/14 02:04:27;;;;;;;2.78;2.35;;;;;;;;;;4931998;29;20210;-75
2022/04/14 02:06:54;;;;;;;3.13;2.25;;;;;;;;;;4935544;29;20602;-73
2022/04/14 02:09:21;;;;;;;1.60;1.50;;;;;;;;;;4930665;29;20717;-72
2022/04/14 02:11:48;;;;;;;2.05;1.52;;;;;;;;;;4942343;29;20206;-73
2022/04/14 02:14:15;;;;;;;3.40;3.08;;;;;;;;;;4932571;29;20194;-72
2022/04/14 02:16:44;;;;;;;2.80;1.85;;;;;;;;;;4935801;29;20199;-73
2022/04/14 02:19:11;;;;;;;2.47;2.00;;;;;;;;;;4928568;29;20199;-73
2022/04/14 02:21:38;;;;;;;1.67;1.33;;;;;;;;;;4940861;29;20601;-73
2022/04/14 02:24:05;;;;;;;3.60;2.30;;;;;;;;;;4933459;29;20581;-74
2022/04/14 02:26:32;;;;;;;2.25;1.92;;;;;;;;;;4938995;29;20191;-73
2022/04/14 02:28:59;;;;;;;2.85;1.85;;;;;;;;;;4930039;29;20199;-73
2022/04/14 02:31:26;;;;;;;2.00;1.77;;;;;;;;;;4941301;29;20202;-72
2022/04/14 02:33:55;;;;;;;1.58;1.45;;;;;;;;;;4936443;29;20212;-73
2022/04/14 02:36:23;;;;;;;2.63;1.73;;;;;;;;;;4943885;29;20198;-73
2022/04/14 02:38:50;;;;;;;1.70;1.60;;;;;;;;;;4942620;28;20285;-72
2022/04/14 02:41:17;;;;;;;4.05;1.98;;;;;;;;;;4929589;29;20234;-73
2022/04/14 02:43:44;;;;;;;4.18;2.38;;;;;;;;;;4932825;29;20207;-73
2022/04/14 02:46:12;;;;;;;2.50;1.95;;;;;;;;;;4938341;29;20230;-73
2022/04/14 02:48:39;;;;;;;2.38;1.92;;;;;;;;;;4937285;29;20206;-72
2022/04/14 02:51:07;;;;;;;2.08;1.90;;;;;;;;;;4935504;29;20202;-73
2022/04/14 02:53:34;;;;;;;2.00;1.73;;;;;;;;;;4940787;29;20198;-74
2022/04/14 02:56:02;;;;;;;2.00;1.80;;;;;;;;;;4939946;29;20198;-74
2022/04/14 02:58:29;;;;;;;2.63;2.35;;;;;;;;;;4933464;29;20199;-73
2022/04/14 03:00:56;;;;;;;2.85;2.20;;;;;;;;;;4944005;29;20257;-73
2022/04/14 03:03:25;;;;;;;2.25;1.90;;;;;;;;;;4934156;29;20198;-74
2022/04/14 03:05:52;;;;;;;2.70;2.50;;;;;;;;;;4944742;29;20195;-74
2022/04/14 03:08:20;;;;;;;3.45;3.15;;;;;;;;;;4950332;29;20202;-72
2022/04/14 03:10:48;;;;;;;2.60;2.40;;;;;;;;;;4947479;29;20211;-73
2022/04/14 03:13:16;;;;;;;2.90;2.40;;;;;;;;;;4942678;29;20198;-72
2022/04/14 03:15:43;;;;;;;2.85;2.30;;;;;;;;;;4941443;29;20194;-71
2022/04/14 03:18:10;;;;;;;2.50;2.30;;;;;;;;;;4934217;29;20198;-73
2022/04/14 03:20:37;;;;;;;2.95;2.13;;;;;;;;;;4935744;29;20225;-73
2022/04/14 03:23:05;;;;;;;2.60;2.30;;;;;;;;;;4934127;29;20649;-73
2022/04/14 03:25:33;;;;;;;3.50;2.60;;;;;;;;;;4949001;29;20210;-73
2022/04/14 03:28:00;;;;;;;4.45;2.53;;;;;;;;;;4942907;29;20198;-73
2022/04/14 03:30:27;;;;;;;2.25;2.05;;;;;;;;;;4939573;29;20202;-73
2022/04/14 03:32:54;;;;;;;2.20;2.00;;;;;;;;;;4945998;29;20201;-73
2022/04/14 03:35:21;;;;;;;3.58;1.80;;;;;;;;;;4949185;29;20613;-73
2022/04/14 03:37:48;;;;;;;2.55;2.35;;;;;;;;;;4946527;29;20207;-74
2022/04/14 03:40:15;;;;;;;6.32;3.50;;;;;;;;;;4946365;28;20570;-73
2022/04/14 03:42:44;;;;;;;2.88;2.67;;;;;;;;;;4943864;29;20229;-73
2022/04/14 03:45:11;;;;;;;2.30;2.10;;;;;;;;;;4945643;29;20249;-73
2022/04/14 03:47:38;;;;;;;3.28;2.45;;;;;;;;;;4949166;29;20215;-72
2022/04/14 03:50:05;;;;;;;3.60;2.42;;;;;;;;;;4942680;29;20643;-72
2022/04/14 03:52:33;;;;;;;3.47;2.10;;;;;;;;;;4937297;29;20205;-72
2022/04/14 03:55:00;;;;;;;4.53;3.97;;;;;;;;;;4943255;29;20950;-71
2022/04/14 03:57:27;;;;;;;1.80;1.70;;;;;;;;;;4949133;29;20286;-71
2022/04/14 03:59:55;;;;;;;2.92;2.63;;;;;;;;;;4941771;29;20198;-71
2022/04/14 04:02:22;;;;;;;3.80;2.83;;;;;;;;;;4941373;29;20199;-71
2022/04/14 04:04:50;;;;;;;3.17;2.25;;;;;;;;;;4940929;29;20190;-73
2022/04/14 04:07:17;;;;;;;4.28;3.05;;;;;;;;;;4944735;28;20658;-72
2022/04/14 04:09:44;;;;;;;2.90;2.63;;;;;;;;;;4942033;29;21609;-73
2022/04/14 04:12:11;;;;;;;4.30;3.90;;;;;;;;;;4940121;29;20202;-73
2022/04/14 04:14:38;;;;;;;3.72;3.35;;;;;;;;;;4931147;29;20211;-75
2022/04/14 04:17:07;;;;;;;5.68;3.95;;;;;;;;;;4933349;29;20586;-75
2022/04/14 04:19:34;;;;;;;3.85;3.13;;;;;;;;;;4935316;29;20199;-74
2022/04/14 04:22:01;;;;;;;3.03;2.50;;;;;;;;;;4938981;29;20313;-73
2022/04/14 04:24:28;;;;;;;3.08;2.63;;;;;;;;;;4936247;29;22000;-72
2022/04/14 04:26:55;;;;;;;2.90;2.60;;;;;;;;;;4945809;29;20620;-73
2022/04/14 04:29:22;;;;;;;3.10;2.58;;;;;;;;;;4936310;29;20194;-73
2022/04/14 04:31:49;;;;;;;3.80;3.00;;;;;;;;;;4937163;29;20602;-72
2022/04/14 04:34:18;;;;;;;2.70;2.47;;;;;;;;;;4943998;29;20198;-73
2022/04/14 04:36:45;;;;;;;2.92;2.55;;;;;;;;;;4933504;29;20206;-73
2022/04/14 04:39:12;;;;;;;2.58;2.38;;;;;;;;;;4941700;29;20246;-72
2022/04/14 04:41:39;;;;;;;2.10;2.00;;;;;;;;;;4944337;29;20307;-73
2022/04/14 04:44:06;;;;;;;2.17;1.98;;;;;;;;;;4937007;29;20286;-73
2022/04/14 04:46:33;;;;;;;3.65;3.00;;;;;;;;;;4939150;29;20221;-73
2022/04/14 04:49:00;;;;;;;3.70;3.05;;;;;;;;;;4936455;29;20210;-73
2022/04/14 04:51:29;;;;;;;2.03;1.88;;;;;;;;;;4941998;29;20206;-73
2022/04/14 04:53:56;;;;;;;3.60;3.28;;;;;;;;;;4933158;29;20203;-73
2022/04/14 04:56:23;;;;;;;4.57;3.88;;;;;;;;;;4933908;29;20206;-72
2022/04/14 04:58:50;;;;;;;3.35;3.00;;;;;;;;;;4934300;29;20286;-72
2022/04/14 05:01:17;;;;;;;3.20;2.90;;;;;;;;;;4933723;29;20230;-72
2022/04/14 05:03:44;;;;;;;2.72;2.53;;;;;;;;;;4932681;29;20199;-74
2022/04/14 05:06:11;;;;;;;3.05;2.78;;;;;;;;;;4941076;29;20203;-73
2022/04/14 05:08:40;;;;;;;2.70;2.50;;;;;;;;;;4940527;29;20601;-73
2022/04/14 05:11:07;;;;;;;2.33;2.13;;;;;;;;;;4936996;29;20546;-72
2022/04/14 05:13:34;;;;;;;2.47;2.25;;;;;;;;;;4930648;29;20199;-72
2022/04/14 05:16:02;;;;;;;3.42;2.45;;;;;;;;;;4937418;29;20206;-72
2022/04/14 05:18:29;;;;;;;2.50;1.52;;;;;;;;;;4929976;29;20210;-73
2022/04/14 05:20:56;;;;;;;4.18;3.45;;;;;;;;;;4940778;29;20709;-73
2022/04/14 05:23:23;;;;;;;3.85;2.00;;;;;;;;;;4935509;29;20210;-73
2022/04/14 05:25:51;;;;;;;2.90;2.70;;;;;;;;;;4939889;29;20202;-73
2022/04/14 05:28:18;;;;;;;3.83;3.42;;;;;;;;;;4928798;29;20203;-73
2022/04/14 05:30:45;;;;;;;3.20;2.33;;;;;;;;;;4934684;29;20198;-73
2022/04/14 05:33:14;;;;;;;4.45;4.05;;;;;;;;;;4932165;29;20195;-73
2022/04/14 05:35:43;;;;;;;3.35;2.53;;;;;;;;;;4939871;29;20206;-73
2022/04/14 05:38:10;;;;;;;4.30;3.20;;;;;;;;;;4935694;29;20202;-74
2022/04/14 05:40:41;;;;;;;3.80;3.10;;;;;;;;;;4941036;29;20233;-73
2022/04/14 05:43:10;;;;;;;4.90;4.43;;;;;;;;;;4927953;29;20729;-73
2022/04/14 05:45:37;;;;;;;3.65;3.35;;;;;;;;;;4935943;29;20602;-74
2022/04/14 05:48:05;;;;;;;2.95;2.65;;;;;;;;;;4931517;29;20205;-74
2022/04/14 05:50:32;;;;;;;4.93;3.58;;;;;;;;;;4945186;29;20209;-75
2022/04/14 05:52:59;;;;;;;2.85;2.65;;;;;;;;;;4936569;29;20207;-74
2022/04/14 05:55:26;;;;;;;3.90;3.38;;;;;;;;;;4934096;29;20194;-73
2022/04/14 05:57:53;;;;;;;3.83;3.53;;;;;;;;;;4930662;29;20197;-74
2022/04/14 06:00:22;;;;;;;4.85;4.28;;;;;;;;;;4939628;29;20226;-73
2022/04/14 06:02:49;;;;;;;4.68;3.35;;;;;;;;;;4936142;29;20660;-73
2022/04/14 06:05:16;;;;;;;3.60;3.10;;;;;;;;;;4943273;29;20206;-73
2022/04/14 06:07:43;;;;;;;4.00;3.38;;;;;;;;;;4937182;29;20190;-73
2022/04/14 06:10:10;;;;;;;4.05;3.10;;;;;;;;;;4938124;29;20249;-73
2022/04/14 06:12:37;;;;;;;4.53;4.05;;;;;;;;;;4934940;29;20204;-73
2022/04/14 06:15:04;;;;;;;5.03;4.53;;;;;;;;;;4946216;29;20205;-72
2022/04/14 06:17:33;;;;;;;4.25;3.85;;;;;;;;;;4933152;29;20198;-72
2022/04/14 06:20:01;;;;;;;7.10;4.63;;;;;;;;;;4926388;29;20222;-73
2022/04/14 06:22:28;;;;;;;5.65;4.28;;;;;;;;;;4939500;29;20218;-73
2022/04/14 06:24:58;;;;;;;4.55;4.07;;;;;;;;;;4943644;29;20209;-73
2022/04/14 06:27:25;;;;;;;4.72;2.80;;;;;;;;;;4940096;29;20206;-72
2022/04/14 06:29:52;;;;;;;3.88;3.47;;;;;;;;;;4932559;28;20207;-72
2022/04/14 06:32:19;;;;;;;5.15;4.35;;;;;;;;;;4950818;29;20202;-73
2022/04/14 06:34:47;;;;;;;5.10;4.32;;;;;;;;;;4941650;29;20194;-74
2022/04/14 06:37:14;;;;;;;4.65;4.22;;;;;;;;;;4921298;29;20209;-74
2022/04/14 06:39:41;;;;;;;5.95;5.35;;;;;;;;;;4951362;28;20237;-74
2022/04/14 06:42:08;;;;;;;7.40;5.43;;;;;;;;;;4946108;29;20241;-74
2022/04/14 06:44:35;;;;;;;5.43;4.38;;;;;;;;;;4940129;29;20199;-72
2022/04/14 06:47:02;;;;;;;5.03;4.00;;;;;;;;;;4937178;29;20444;-73
2022/04/14 06:49:30;;;;;;;5.25;4.03;;;;;;;;;;4939724;29;20195;-73
2022/04/14 06:51:58;;;;;;;4.10;3.70;;;;;;;;;;4933775;29;20234;-73
2022/04/14 06:54:25;;;;;;;6.75;4.70;;;;;;;;;;4937503;29;20229;-73
2022/04/14 06:56:52;;;;;;;5.28;4.78;;;;;;;;;;4935442;29;20672;-73
2022/04/14 06:59:19;;;;;;;3.17;2.88;;;;;;;;;;4938168;29;20203;-73
2022/04/14 07:01:46;;;;;;;3.10;2.80;;;;;;;;;;4940350;29;20225;-73
2022/04/14 07:04:13;;;;;;;7.53;5.00;;;;;;;;;;4937705;29;20205;-73
2022/04/14 07:06:40;;;;;;;8.57;5.72;;;;;;;;;;4935840;29;20569;-73
2022/04/14 07:09:08;;;;;;;7.75;5.90;;;;;;;;;;4936218;29;20202;-73
2022/04/14 07:11:35;;;;;;;9.27;6.75;;;;;;;;;;4937556;29;20210;-73
2022/04/14 07:14:03;;;;;;;4.88;4.38;;;;;;;;;;4936381;29;20624;-73
2022/04/14 07:16:30;;;;;;;8.68;6.22;;;;;;;;;;4936786;29;20199;-73
2022/04/14 07:18:57;;;;;;;4.70;3.40;;;;;;;;;;4937794;29;20253;-73
2022/04/14 07:21:24;;;;;;;4.40;3.90;;;;;;;;;;4937651;29;20241;-73
2022/04/14 07:23:51;;;;;;;3.83;3.45;;;;;;;;;;4937941;29;20205;-73
2022/04/14 07:26:20;;;;;;;4.45;3.05;;;;;;;;;;4940869;29;20221;-73
2022/04/14 07:28:47;;;;;;;4.22;2.90;;;;;;;;;;4946707;29;20581;-73
2022/04/14 07:31:14;;;;;;;4.15;3.70;;;;;;;;;;4948143;29;20211;-73
2022/04/14 07:33:41;;;;;;;4.47;2.97;;;;;;;;;;4936915;29;20306;-73
2022/04/14 07:36:08;;;;;;;5.32;3.67;;;;;;;;;;4941625;29;20202;-73
2022/04/14 07:38:35;;;;;;;3.67;3.03;;;;;;;;;;4951747;28;20276;-73
2022/04/14 07:41:05;;;;;;;2.90;2.63;;;;;;;;;;4931209;28;20199;-73
2022/04/14 07:43:34;;;;;;;4.38;3.72;;;;;;;;;;4929971;29;20205;-73
2022/04/14 07:46:01;;;;;;;4.40;4.00;;;;;;;;;;4945270;29;20202;-73
2022/04/14 07:48:28;;;;;;;7.55;5.40;;;;;;;;;;4940193;29;20202;-73
2022/04/14 07:50:55;;;;;;;7.95;3.63;;;;;;;;;;4939088;29;20210;-72
2022/04/14 07:53:22;;;;;;;6.00;4.50;;;;;;;;;;4946653;29;20297;-73
2022/04/14 07:55:49;;;;;;;8.23;5.00;;;;;;;;;;4947616;29;20204;-72
2022/04/14 07:58:16;;;;;;;8.68;5.50;;;;;;;;;;4933644;29;20206;-73
2022/04/14 08:00:45;;;;;;;7.55;6.05;;;;;;;;;;4946145;29;20195;-73
2022/04/14 08:03:12;;;;;;;9.30;6.65;;;;;;;;;;4947217;29;20621;-73
2022/04/14 08:05:39;;;;;;;8.13;5.88;;;;;;;;;;4948706;29;20207;-73
2022/04/14 08:08:08;;;;;;;9.77;6.63;;;;;;;;;;4938878;29;20202;-73
2022/04/14 08:10:35;;;;;;;7.95;6.63;;;;;;;;;;4943117;29;20205;-73
2022/04/14 08:13:02;;;;;;;9.65;6.88;;;;;;;;;;4943143;29;20569;-73
2022/04/14 08:15:30;;;;;;;7.65;5.80;;;;;;;;;;4940934;29;20206;-73
2022/04/14 08:17:58;;;;;;;7.85;6.35;;;;;;;;;;4930306;29;20207;-72
2022/04/14 08:20:25;;;;;;;9.23;7.65;;;;;;;;;;4938139;29;20205;-73
2022/04/14 08:22:54;;;;;;;12.68;7.50;;;;;;;;;;4950835;29;20313;-73
2022/04/14 08:25:22;;;;;;;9.40;7.93;;;;;;;;;;4939750;29;20646;-72
2022/04/14 08:27:49;;;;;;;10.38;7.25;;;;;;;;;;4931973;29;20610;-73
2022/04/14 08:30:17;;;;;;;9.05;8.10;;;;;;;;;;4947273;29;20195;-72
2022/04/14 08:32:45;;;;;;;10.07;7.32;;;;;;;;;;4951436;29;20237;-73
2022/04/14 08:35:14;;;;;;;11.60;7.72;;;;;;;;;;4937324;29;20198;-73
2022/04/14 08:37:41;;;;;;;10.93;8.40;;;;;;;;;;4944125;29;20201;-72
2022/04/14 08:40:09;;;;;;;11.80;7.97;;;;;;;;;;4933197;29;20593;-73
2022/04/14 08:42:39;;;;;;;10.48;9.02;;;;;;;;;;4931869;29;20226;-72
2022/04/14 08:45:07;;;;;;;10.48;8.35;;;;;;;;;;4939249;29;20245;-73
2022/04/14 08:47:36;;;;;;;13.45;8.38;;;;;;;;;;4934687;29;20201;-73
2022/04/14 08:50:04;;;;;;;13.20;9.48;;;;;;;;;;4935893;29;20206;-73
2022/04/14 08:52:33;;;;;;;11.63;8.63;;;;;;;;;;4937729;29;20207;-73
2022/04/14 08:55:00;;;;;;;16.58;10.93;;;;;;;;;;4935110;29;20219;-73
2022/04/14 08:57:28;;;;;;;14.88;11.27;;;;;;;;;;4939904;29;20207;-73
2022/04/14 08:59:55;;;;;;;14.30;10.75;;;;;;;;;;4936297;29;20198;-73
2022/04/14 09:02:23;;;;;;;12.35;9.27;;;;;;;;;;4934964;29;20227;-73
2022/04/14 09:04:50;;;;;;;14.13;11.57;;;;;;;;;;4934508;29;20201;-73
2022/04/14 09:07:17;;;;;;;20.08;15.93;;;;;;;;;;4938292;29;20246;-72
2022/04/14 09:09:46;;;;;;;14.13;10.93;;;;;;;;;;4936174;29;20215;-73
2022/04/14 09:12:13;;;;;;;17.23;14.05;;;;;;;;;;4934388;29;20570;-73
2022/04/14 09:14:41;;;;;;;14.38;10.93;;;;;;;;;;4938587;29;20197;-73
2022/04/14 09:17:09;;;;;;;16.00;12.40;;;;;;;;;;4935235;29;20592;-72
2022/04/14 09:19:36;;;;;;;16.23;11.63;;;;;;;;;;4929854;29;20210;-73
2022/04/14 09:22:04;;;;;;;18.35;14.02;;;;;;;;;;4935452;29;20591;-72
2022/04/14 09:24:41;;;;;;;18.38;14.55;;;;;;;;;;4938451;29;20209;-72
2022/04/14 09:27:10;;;;;;;17.05;12.88;;;;;;;;;;4934131;29;20212;-73
2022/04/14 09:29:48;;;;;;;17.50;12.88;;;;;;;;;;4941477;29;20546;-73
2022/04/14 09:32:27;;;;;;;18.15;14.82;;;;;;;;;;4943601;29;20268;-75
2022/04/14 09:34:54;;;;;;;16.88;13.88;;;;;;;;;;4927580;29;20204;-73
2022/04/14 09:37:21;;;;;;;16.65;13.20;;;;;;;;;;4934341;29;20288;-73
2022/04/14 09:39:56;;;;;;;18.30;14.73;;;;;;;;;;4945280;28;20228;-74
2022/04/14 09:42:24;;;;;;;16.65;13.63;;;;;;;;;;4938260;29;20248;-75
2022/04/14 09:44:51;;;;;;;16.60;13.77;;;;;;;;;;4933468;29;20200;-78
2022/04/14 09:47:40;;;;;;;15.18;12.88;;;;;;;;;;4934528;29;20205;-73
2022/04/14 09:50:08;;;;;;;20.65;14.50;;;;;;;;;;4914388;29;20204;-74
2022/04/14 09:52:52;;;;;;;20.95;14.88;;;;;;;;;;4935779;29;20215;-74
2022/04/14 09:55:19;;;;;;;19.80;15.60;;;;;;;;;;4932159;29;20257;-74
2022/04/14 09:58:05;;;;;;;21.98;16.00;;;;;;;;;;4942521;29;20213;-73
2022/04/14 10:00:39;;;;;;;21.20;15.43;;;;;;;;;;4934805;29;20193;-73
2022/04/14 10:03:13;;;;;;;21.27;15.25;;;;;;;;;;4933379;29;20232;-73
2022/04/14 10:05:41;;;;;;;19.13;14.32;;;;;;;;;;4941428;29;20205;-73
2022/04/14 10:08:08;;;;;;;16.98;14.30;;;;;;;;;;4937192;29;20203;-73
2022/04/14 10:10:36;;;;;;;17.65;14.65;;;;;;;;;;4941138;29;20254;-74
2022/04/14 10:13:05;;;;;;;21.05;15.00;;;;;;;;;;4932758;29;20200;-73
2022/04/14 10:15:33;;;;;;;17.25;15.40;;;;;;;;;;4943388;29;20291;-73
2022/04/14 10:18:02;;;;;;;24.08;17.50;;;;;;;;;;4935341;29;20563;-73
2022/04/14 10:20:29;;;;;;;20.55;17.67;;;;;;;;;;4934945;29;20213;-73
2022/04/14 10:22:57;;;;;;;18.33;15.07;;;;;;;;;;4940506;29;20726;-74
2022/04/14 10:25:24;;;;;;;18.55;15.02;;;;;;;;;;4936472;29;20709;-73
2022/04/14 10:27:54;;;;;;;17.92;14.50;;;;;;;;;;4935520;29;20213;-73
2022/04/14 10:30:23;;;;;;;17.73;14.55;;;;;;;;;;4939167;29;20208;-73
2022/04/14 10:32:50;;;;;;;17.20;15.40;;;;;;;;;;4952166;29;20592;-73
2022/04/14 10:35:17;;;;;;;15.50;13.05;;;;;;;;;;4938602;29;20655;-73
2022/04/14 10:37:45;;;;;;;15.95;13.60;;;;;;;;;;4948812;29;20204;-73
2022/04/14 10:40:13;;;;;;;16.00;13.52;;;;;;;;;;4943509;29;20241;-73
2022/04/14 10:42:46;;;;;;;21.17;15.73;;;;;;;;;;4944992;29;20826;-74
2022/04/14 10:45:17;;;;;;;16.80;15.20;;;;;;;;;;4935222;29;20204;-73
2022/04/14 10:47:55;;;;;;;16.55;13.80;;;;;;;;;;4945771;29;20261;-73
2022/04/14 10:50:23;;;;;;;15.27;12.52;;;;;;;;;;4938892;29;20192;-73
2022/04/14 10:53:04;;;;;;;16.23;14.60;;;;;;;;;;4938729;29;21432;-74
2022/04/14 10:55:36;;;;;;;15.48;13.98;;;;;;;;;;4935037;29;20655;-74
2022/04/14 10:58:03;;;;;;;15.13;13.63;;;;;;;;;;4936993;29;20240;-74
2022/04/14 11:00:37;;;;;;;14.05;12.57;;;;;;;;;;4935297;29;20213;-74
2022/04/14 11:03:07;;;;;;;14.93;13.38;;;;;;;;;;4940157;29;20228;-74
2022/04/14 11:05:41;;;;;;;14.98;13.45;;;;;;;;;;4950477;29;20203;-73
2022/04/14 11:08:23;;;;;;;15.30;13.60;;;;;;;;;;4935996;29;20204;-74
2022/04/14 11:10:57;;;;;;;11.82;10.50;;;;;;;;;;4934237;29;20202;-72
2022/04/14 11:13:44;;;;;;;15.07;13.23;;;;;;;;;;4930268;29;20670;-73
2022/04/14 11:16:26;;;;;;;13.57;11.70;;;;;;;;;;4931948;28;20204;-73
2022/04/14 11:19:07;;;;;;;11.70;10.50;;;;;;;;;;4933103;29;20207;-72
2022/04/14 11:21:36;;;;;;;11.13;9.60;;;;;;;;;;4929080;29;20210;-72
2022/04/14 11:24:03;;;;;;;11.63;10.18;;;;;;;;;;4933072;29;20229;-73
2022/04/14 11:26:35;;;;;;;12.23;10.35;;;;;;;;;;4935420;29;20229;-73
2022/04/14 11:29:03;;;;;;;11.75;10.05;;;;;;;;;;4928725;29;20722;-72
2022/04/14 11:31:30;;;;;;;11.98;10.20;;;;;;;;;;4940544;29;20654;-73
2022/04/14 11:33:58;;;;;;;11.32;9.65;;;;;;;;;;4942246;29;20574;-74
2022/04/14 11:36:27;;;;;;;11.75;9.80;;;;;;;;;;4937211;29;20209;-72
2022/04/14 11:38:59;;;;;;;9.95;8.95;;;;;;;;;;4940961;28;20291;-73
2022/04/14 11:41:30;;;;;;;10.82;9.75;;;;;;;;;;4940701;29;20196;-73
2022/04/14 11:43:58;;;;;;;14.43;10.25;;;;;;;;;;4929177;29;20228;-71
2022/04/14 11:46:25;;;;;;;12.02;9.80;;;;;;;;;;4945437;29;20677;-71
2022/04/14 11:48:52;;;;;;;12.85;10.55;;;;;;;;;;4936955;29;20580;-72
2022/04/14 11:51:19;;;;;;;10.13;9.07;;;;;;;;;;4935323;29;20221;-72
2022/04/14 11:53:47;;;;;;;10.77;9.68;;;;;;;;;;4943235;29;21581;-72
2022/04/14 11:56:18;;;;;;;10.07;9.05;;;;;;;;;;4949318;29;20214;-73
2022/04/14 11:58:45;;;;;;;9.73;8.73;;;;;;;;;;4938003;29;20207;-72
2022/04/14 12:01:13;;;;;;;10.05;9.00;;;;;;;;;;4932351;29;20678;-72
2022/04/14 12:03:40;;;;;;;8.43;7.63;;;;;;;;;;4936543;29;20236;-73
2022/04/14 12:06:08;;;;;;;8.13;7.32;;;;;;;;;;4942424;29;20209;-72
2022/04/14 12:08:35;;;;;;;9.00;8.15;;;;;;;;;;4937526;29;20218;-72
2022/04/14 12:11:03;;;;;;;7.88;7.13;;;;;;;;;;4935389;29;20214;-72
2022/04/14 12:13:33;;;;;;;8.55;7.80;;;;;;;;;;4933827;29;20295;-71
2022/04/14 12:16:01;;;;;;;7.05;6.35;;;;;;;;;;4930448;29;20231;-73
2022/04/14 12:18:28;;;;;;;11.07;6.93;;;;;;;;;;4929292;29;20315;-72
2022/04/14 12:20:55;;;;;;;7.68;6.63;;;;;;;;;;4942942;29;20219;-73
2022/04/14 12:23:22;;;;;;;7.05;6.45;;;;;;;;;;4946862;29;20618;-72
2022/04/14 12:25:50;;;;;;;6.10;5.50;;;;;;;;;;4939090;29;20223;-72
2022/04/14 12:28:17;;;;;;;6.63;5.97;;;;;;;;;;4930847;29;20671;-72
2022/04/14 12:30:45;;;;;;;6.70;6.10;;;;;;;;;;4935329;29;20200;-73
2022/04/14 12:33:14;;;;;;;5.43;4.88;;;;;;;;;;4946601;29;20217;-72
2022/04/14 12:35:42;;;;;;;5.13;4.65;;;;;;;;;;4944859;29;20577;-74
2022/04/14 12:38:12;;;;;;;4.60;4.20;;;;;;;;;;4936888;29;20279;-74
2022/04/14 12:40:39;;;;;;;5.40;4.85;;;;;;;;;;4938720;29;20736;-74
2022/04/14 12:43:07;;;;;;;5.28;4.82;;;;;;;;;;4940511;29;20233;-73
2022/04/14 12:45:38;;;;;;;4.97;4.43;;;;;;;;;;4939385;29;20294;-72
2022/04/14 12:48:07;;;;;;;4.75;4.38;;;;;;;;;;4941275;29;20207;-73
2022/04/14 12:50:34;;;;;;;6.45;4.57;;;;;;;;;;4931987;29;20204;-71
2022/04/14 12:53:01;;;;;;;4.20;3.60;;;;;;;;;;4941452;29;20207;-73
2022/04/14 12:55:30;;;;;;;6.10;3.92;;;;;;;;;;4950327;29;20201;-73
2022/04/14 12:58:09;;;;;;;5.10;3.83;;;;;;;;;;4919254;29;20207;-73
2022/04/14 13:00:36;;;;;;;4.57;3.53;;;;;;;;;;4927460;29;20709;-73
2022/04/14 13:03:05;;;;;;;3.60;3.30;;;;;;;;;;4929201;29;20225;-73
2022/04/14 13:05:37;;;;;;;3.15;2.85;;;;;;;;;;4939656;29;20579;-72
2022/04/14 13:08:04;;;;;;;4.22;3.08;;;;;;;;;;4934213;29;20212;-71
2022/04/14 13:10:34;;;;;;;3.47;3.17;;;;;;;;;;4940159;29;20206;-72
2022/04/14 13:13:02;;;;;;;4.18;3.20;;;;;;;;;;4943467;29;20216;-73
2022/04/14 13:15:30;;;;;;;3.50;3.20;;;;;;;;;;4934109;29;20664;-72
2022/04/14 13:17:58;;;;;;;4.63;3.67;;;;;;;;;;4928833;29;20264;-73
2022/04/14 13:20:32;;;;;;;3.15;2.95;;;;;;;;;;4939057;29;20792;-73
2022/04/14 13:23:01;;;;;;;3.60;3.30;;;;;;;;;;4928086;29;20694;-74
2022/04/14 13:25:28;;;;;;;2.65;2.28;;;;;;;;;;4933136;29;20201;-73
2022/04/14 13:27:55;;;;;;;2.67;2.47;;;;;;;;;;4929557;29;20212;-72
2022/04/14 13:30:22;;;;;;;2.67;2.47;;;;;;;;;;4932999;29;20200;-71
2022/04/14 13:32:49;;;;;;;3.50;2.80;;;;;;;;;;4934885;29;20216;-72
2022/04/14 13:35:17;;;;;;;2.40;2.20;;;;;;;;;;4941771;29;20208;-72
2022/04/14 13:37:44;;;;;;;5.15;2.92;;;;;;;;;;4930916;29;20204;-73
2022/04/14 13:40:13;;;;;;;3.25;2.47;;;;;;;;;;4929649;29;20253;-74
2022/04/14 13:42:42;;;;;;;2.92;2.60;;;;;;;;;;4925101;29;20264;-75
2022/04/14 13:45:09;;;;;;;2.80;2.60;;;;;;;;;;4941353;29;20209;-72
2022/04/14 13:47:37;;;;;;;2.97;2.40;;;;;;;;;;4933208;29;20275;-72
2022/04/14 13:50:05;;;;;;;3.60;2.53;;;;;;;;;;4923500;29;20197;-73
2022/04/14 13:52:32;;;;;;;2.72;2.47;;;;;;;;;;4941945;29;20200;-73
2022/04/14 13:54:59;;;;;;;2.65;2.10;;;;;;;;;;4939787;29;20233;-74
2022/04/14 13:57:28;;;;;;;3.38;2.50;;;;;;;;;;4918520;29;20205;-74
2022/04/14 13:59:55;;;;;;;2.78;2.25;;;;;;;;;;4933020;29;20212;-73
2022/04/14 14:02:22;;;;;;;2.97;2.28;;;;;;;;;;4934581;29;20203;-73
2022/04/14 14:04:49;;;;;;;2.63;2.38;;;;;;;;;;4942906;29;20596;-73
2022/04/14 14:07:16;;;;;;;3.00;2.35;;;;;;;;;;4933043;29;20643;-73
2022/04/14 14:09:43;;;;;;;3.78;2.65;;;;;;;;;;4939742;29;20201;-73
2022/04/14 14:12:11;;;;;;;3.78;2.40;;;;;;;;;;4942331;29;20220;-73
2022/04/14 14:14:39;;;;;;;2.45;2.25;;;;;;;;;;4928602;29;20203;-72
2022/04/14 14:17:07;;;;;;;2.88;2.65;;;;;;;;;;4935717;29;20199;-71
2022/04/14 14:19:34;;;;;;;2.45;2.25;;;;;;;;;;4920327;29;20249;-72
2022/04/14 14:22:01;;;;;;;5.90;2.40;;;;;;;;;;4935742;29;20207;-71
2022/04/14 14:24:28;;;;;;;2.85;2.25;;;;;;;;;;4941151;29;20228;-71
2022/04/14 14:26:55;;;;;;;2.78;2.33;;;;;;;;;;4933030;29;20565;-72
2022/04/14 14:29:22;;;;;;;3.28;2.53;;;;;;;;;;4926518;29;20680;-73
2022/04/14 14:31:51;;;;;;;2.78;1.88;;;;;;;;;;4933380;29;20207;-73
2022/04/14 14:34:18;;;;;;;2.25;2.05;;;;;;;;;;4942018;29;20209;-72
2022/04/14 14:36:47;;;;;;;5.25;3.72;;;;;;;;;;4940652;29;20206;-70
2022/04/14 14:39:14;;;;;;;3.72;3.10;;;;;;;;;;4946941;28;20313;-72
2022/04/14 14:41:41;;;;;;;3.00;2.80;;;;;;;;;;4940029;29;20198;-72
2022/04/14 14:44:08;;;;;;;4.32;3.00;;;;;;;;;;4939563;29;20230;-72